LOWG/GRZ METAR and TAF weather

Enter ICAO airport designator
Station Type Date Time Source
LOWG METAR 2020/09/21 08:20 UTC NOAA

LOWG 210820Z VRB01KT CAVOK 17/11 Q1018 NOSIG


Station Type Date Time Source
LOWG Decoded METAR 2020/09/21 08:20 UTC NOAA

Graz-Thalerhof-Flughafen, Austria (LOWG) 47-00N 015-26E 347M
Sep 21, 2020 - 04:20 AM EDT / 2020.09.21 0820 UTC
Wind: Variable at 1 MPH (1 KT):0
Visibility: greater than 7 mile(s):0
Temperature: 62 F (17 C)
Dew Point: 51 F (11 C)
Relative Humidity: 67%
Pressure (altimeter): 30.06 in. Hg (1018 hPa)
ob: LOWG 210820Z VRB01KT CAVOK 17/11 Q1018 NOSIG
cycle: 8

Station Type Date Time Source
LOWG TAF 2020/09/21 06:21 UTC NOAA

TAF TAF LOWG 210515Z 2106/2206 VRB05KT CAVOK TX22/2114Z TN10/2106Z
TEMPO 2114/2118 15010KT PROB30
TEMPO 2203/2205 0700 BCFG NSC

Example: see airport list